createdAt,value
2022-12-28T05:16:40.819Z,8.45
2022-12-28T05:22:43.617Z,8.44
2022-12-28T05:28:45.862Z,8.40
2022-12-28T05:34:47.951Z,8.43
2022-12-28T05:40:50.017Z,8.35
2022-12-28T05:46:52.636Z,8.35
2022-12-28T05:52:54.755Z,8.47
2022-12-28T05:58:59.523Z,8.46
2022-12-28T06:05:02.024Z,8.35
2022-12-28T06:11:07.163Z,8.25
2022-12-28T06:17:12.775Z,8.15
2022-12-28T06:23:15.657Z,8.15
2022-12-28T06:29:17.719Z,8.15
2022-12-28T06:35:22.701Z,8.16
2022-12-28T06:41:26.049Z,8.39
2022-12-28T06:47:29.816Z,8.49
2022-12-28T06:53:35.176Z,8.39
2022-12-28T06:59:37.251Z,8.64
2022-12-28T07:05:40.590Z,8.68
2022-12-28T07:11:45.752Z,8.62
2022-12-28T07:17:47.789Z,8.70
2022-12-28T07:23:51.720Z,9.03
2022-12-28T07:29:54.388Z,8.94
2022-12-28T07:35:58.704Z,9.10
2022-12-28T07:42:06.425Z,9.58
2022-12-28T07:48:08.506Z,9.55
2022-12-28T07:54:10.679Z,9.88
2022-12-28T08:00:14.119Z,10.09
2022-12-28T08:06:20.019Z,10.00
2022-12-28T08:12:23.221Z,10.00
2022-12-28T08:18:25.877Z,10.32
2022-12-28T08:24:28.095Z,10.13
2022-12-28T08:30:31.235Z,10.27
2022-12-28T08:36:33.262Z,10.31
2022-12-28T08:42:35.360Z,10.44
2022-12-28T08:48:37.664Z,10.39
2022-12-28T08:54:40.439Z,10.83
2022-12-28T09:00:44.101Z,11.24
2022-12-28T09:06:47.678Z,11.05
2022-12-28T09:12:49.816Z,10.95
2022-12-28T09:18:59.250Z,11.15
2022-12-28T09:25:01.869Z,11.22
2022-12-28T09:31:06.049Z,11.38
2022-12-28T09:37:08.933Z,11.62
2022-12-28T09:43:30.213Z,11.72
2022-12-28T09:50:11.484Z,11.86
2022-12-28T09:56:38.175Z,12.00
2022-12-28T10:02:41.531Z,12.02
2022-12-28T10:08:52.484Z,12.10
2022-12-28T10:15:01.590Z,12.40
2022-12-28T10:21:05.373Z,12.24
2022-12-28T10:27:20.900Z,12.20
2022-12-28T10:33:24.190Z,12.43
2022-12-28T10:39:29.880Z,12.62
2022-12-28T10:45:48.366Z,12.42
2022-12-28T10:52:18.487Z,12.54
2022-12-28T10:58:33.929Z,12.73
2022-12-28T11:04:36.572Z,12.85
2022-12-28T11:10:41.812Z,12.69
2022-12-28T11:16:44.547Z,12.75
2022-12-28T11:22:47.748Z,13.17
2022-12-28T11:28:54.903Z,13.07
2022-12-28T11:34:58.428Z,13.09
2022-12-28T11:41:03.854Z,13.29
2022-12-28T11:47:16.583Z,13.37
2022-12-28T11:53:43.609Z,13.76
2022-12-28T11:59:46.255Z,13.64
2022-12-28T12:05:51.999Z,13.34
2022-12-28T12:12:24.686Z,13.67
2022-12-28T12:18:29.362Z,13.76
2022-12-28T12:24:50.632Z,13.69
2022-12-28T12:30:56.721Z,13.73
2022-12-28T12:37:36.198Z,13.72
2022-12-28T12:43:50.373Z,14.04
2022-12-28T12:49:57.395Z,13.60
2022-12-28T12:56:22.744Z,13.79
2022-12-28T13:02:52.959Z,13.43
2022-12-28T13:09:04.958Z,13.19
2022-12-28T13:15:17.188Z,13.21
2022-12-28T13:21:25.854Z,12.97
2022-12-28T13:27:36.421Z,12.91
2022-12-28T13:33:43.103Z,12.67
2022-12-28T13:39:47.389Z,12.24
2022-12-28T13:46:02.901Z,12.15
2022-12-28T13:52:14.168Z,11.94
2022-12-28T13:58:28.741Z,11.94
2022-12-28T14:10:56.519Z,11.68
2022-12-28T14:16:58.947Z,11.56
2022-12-28T14:23:29.593Z,11.40
2022-12-28T14:29:34.622Z,11.25
2022-12-28T14:35:42.720Z,11.05
2022-12-28T14:41:47.001Z,11.12
2022-12-28T14:47:57.075Z,10.94
2022-12-28T14:54:19.544Z,10.76
2022-12-28T15:00:23.856Z,10.78
2022-12-28T15:06:31.401Z,10.94
2022-12-28T15:12:34.640Z,10.77
2022-12-28T15:18:43.615Z,10.50
2022-12-28T15:24:46.675Z,10.35
2022-12-28T15:30:52.427Z,10.11
2022-12-28T15:36:54.706Z,10.18
2022-12-28T15:42:57.055Z,10.18
2022-12-28T15:49:02.172Z,10.13
2022-12-28T15:55:05.682Z,10.04
2022-12-28T16:01:07.996Z,9.85
2022-12-28T16:07:11.789Z,9.89
2022-12-28T16:13:14.616Z,9.74
2022-12-28T16:19:17.127Z,9.54
2022-12-28T16:25:19.240Z,9.43
2022-12-28T16:31:28.650Z,9.37
2022-12-28T16:37:30.885Z,9.29
2022-12-28T16:43:34.501Z,9.34
2022-12-28T16:49:39.674Z,9.34
2022-12-28T16:55:42.825Z,9.23
2022-12-28T17:01:45.457Z,9.20
2022-12-28T17:07:48.556Z,9.09
2022-12-28T17:13:51.851Z,9.04
2022-12-28T17:19:54.749Z,8.98
2022-12-28T17:25:56.895Z,8.75
2022-12-28T17:31:58.977Z,8.76
2022-12-28T17:38:02.178Z,8.68
2022-12-28T17:44:06.108Z,8.58
2022-12-28T17:50:10.536Z,8.49
2022-12-28T17:56:14.483Z,8.51
2022-12-28T18:02:17.767Z,8.42
2022-12-28T18:08:21.907Z,8.29
2022-12-28T18:14:25.019Z,8.24
2022-12-28T18:20:27.360Z,8.15
2022-12-28T18:26:30.853Z,8.08
2022-12-28T18:32:35.450Z,8.01
2022-12-28T18:38:43.399Z,7.90
2022-12-28T18:44:47.930Z,7.81
2022-12-28T18:51:15.816Z,7.69
2022-12-28T18:57:17.905Z,7.68
2022-12-28T19:03:20.930Z,7.73
2022-12-28T19:09:23.246Z,7.72
2022-12-28T19:15:26.913Z,7.69
2022-12-28T19:21:31.516Z,7.61
2022-12-28T19:27:33.729Z,7.61
2022-12-28T19:33:38.793Z,7.58
2022-12-28T19:39:41.545Z,7.62
2022-12-28T19:45:43.631Z,7.65
2022-12-28T19:51:47.171Z,7.58
2022-12-28T19:57:51.874Z,7.55
2022-12-28T20:03:56.256Z,7.51
2022-12-28T20:09:58.374Z,7.34
2022-12-28T20:16:01.820Z,7.30
2022-12-28T20:22:04.032Z,7.19
2022-12-28T20:28:06.172Z,7.07
2022-12-28T20:34:08.348Z,6.98
2022-12-28T20:40:11.181Z,6.92
2022-12-28T20:46:13.381Z,6.83
2022-12-28T20:52:15.644Z,6.79
2022-12-28T20:58:18.687Z,6.77
2022-12-28T21:04:21.794Z,6.74
2022-12-28T21:10:24.187Z,6.58
2022-12-28T21:16:26.357Z,6.61
2022-12-28T21:22:28.447Z,6.63
2022-12-28T21:28:30.617Z,6.53
2022-12-28T21:34:34.241Z,6.35
2022-12-28T21:40:41.556Z,6.32
2022-12-28T21:46:44.686Z,6.39
2022-12-28T21:52:47.075Z,6.49
2022-12-28T21:58:53.366Z,6.25
2022-12-28T22:05:14.377Z,6.20
2022-12-28T22:11:54.581Z,6.13
2022-12-28T22:18:04.236Z,5.94
2022-12-28T22:24:07.310Z,5.88
2022-12-28T22:30:10.339Z,5.79
2022-12-28T22:36:20.889Z,5.81
2022-12-28T22:42:24.636Z,5.70
2022-12-28T22:48:28.230Z,5.62
2022-12-28T22:54:30.316Z,5.72
2022-12-28T23:00:32.397Z,5.51
2022-12-28T23:06:36.113Z,5.51
2022-12-28T23:12:39.252Z,5.57
2022-12-28T23:18:59.747Z,5.57
2022-12-28T23:25:20.713Z,5.46
2022-12-28T23:31:22.876Z,5.57
2022-12-28T23:37:24.966Z,5.53
2022-12-28T23:43:27.134Z,5.36
2022-12-28T23:49:29.738Z,5.10
2022-12-28T23:55:33.588Z,4.82
